Time;durP1;ratioP1;P1;durP2;ratioP2;P2;SDS_P1;SDS_P2;PMS_P1;PMS_P2;Temp;Humidity;BMP_temperature;BMP_pressure;BME280_temperature;BME280_humidity;BME280_pressure;Samples;Min_cycle;Max_cycle;Signal;HPM_P1;HPM_P2
2021/11/06 00:03:59;;;;;;;;;;;3.40;99.90;;;;;;8359769;28;20014;-62
2021/11/06 00:08:00;;;;;;;;;;;3.40;99.90;;;;;;8342717;28;19959;-62
2021/11/06 00:12:00;;;;;;;;;;;3.30;99.90;;;;;;8359914;28;19905;-62
2021/11/06 00:16:01;;;;;;;;;;;3.50;99.90;;;;;;8332043;28;20289;-63
2021/11/06 00:20:03;;;;;;;;;;;3.30;99.90;;;;;;8357039;28;20659;-62
2021/11/06 00:24:03;;;;;;;;;;;3.30;99.90;;;;;;8359919;28;19909;-62
2021/11/06 00:28:04;;;;;;;;;;;3.20;99.90;;;;;;8360022;28;19953;-62
2021/11/06 00:32:05;;;;;;;;;;;3.50;99.90;;;;;;8359872;28;19939;-62
2021/11/06 00:36:05;;;;;;;;;;;3.40;99.90;;;;;;8359191;28;20331;-62
2021/11/06 00:40:07;;;;;;;;;;;3.50;99.90;;;;;;8360081;28;19955;-63
2021/11/06 00:44:07;;;;;;;;;;;3.40;99.90;;;;;;8359474;28;20015;-63
2021/11/06 00:48:08;;;;;;;;;;;3.40;99.90;;;;;;8359865;28;19905;-63
2021/11/06 00:52:08;;;;;;;;;;;3.50;99.90;;;;;;8359788;28;20575;-63
2021/11/06 00:56:09;;;;;;;;;;;3.50;99.90;;;;;;8359807;28;20335;-63
2021/11/06 01:00:11;;;;;;;;;;;3.50;99.90;;;;;;8359385;28;19943;-63
2021/11/06 01:04:11;;;;;;;;;;;3.20;99.90;;;;;;8359650;28;19909;-63
2021/11/06 01:08:12;;;;;;;;;;;3.00;99.90;;;;;;8359692;28;20400;-63
2021/11/06 01:12:12;;;;;;;;;;;3.10;99.90;;;;;;8365278;28;19905;-63
2021/11/06 01:16:13;;;;;;;;;;;3.10;99.90;;;;;;8365408;28;20360;-63
2021/11/06 01:20:15;;;;;;;;;;;3.20;99.90;;;;;;8365201;28;19966;-63
2021/11/06 01:24:15;;;;;;;;;;;3.20;99.90;;;;;;8363921;28;19909;-63
2021/11/06 01:28:15;;;;;;;;;;;3.10;99.90;;;;;;8365522;28;19912;-63
2021/11/06 01:32:17;;;;;;;;;;;3.00;99.90;;;;;;8364671;28;19924;-63
2021/11/06 01:36:19;;;;;;;;;;;3.10;99.90;;;;;;8364978;28;20365;-63
2021/11/06 01:40:20;;;;;;;;;;;3.00;99.90;;;;;;8345760;28;19904;-63
2021/11/06 01:44:21;;;;;;;;;;;2.90;99.90;;;;;;8364541;28;19914;-63
2021/11/06 01:48:21;;;;;;;;;;;3.10;99.90;;;;;;8364485;28;19904;-63
2021/11/06 01:52:22;;;;;;;;;;;3.10;99.90;;;;;;8364343;28;19911;-63
2021/11/06 01:56:22;;;;;;;;;;;3.10;99.90;;;;;;8364100;28;20281;-63
2021/11/06 02:00:24;;;;;;;;;;;3.30;99.90;;;;;;8363775;28;20312;-63
2021/11/06 02:04:24;;;;;;;;;;;3.10;99.90;;;;;;8364123;28;19915;-63
2021/11/06 02:08:25;;;;;;;;;;;3.10;99.90;;;;;;8363512;28;20009;-64
2021/11/06 02:12:26;;;;;;;;;;;3.10;99.90;;;;;;8363177;28;20348;-63
2021/11/06 02:16:26;;;;;;;;;;;3.00;99.90;;;;;;8345846;28;19913;-63
2021/11/06 02:20:27;;;;;;;;;;;2.90;99.90;;;;;;8362383;28;19905;-63
2021/11/06 02:24:28;;;;;;;;;;;3.00;99.90;;;;;;8363132;28;20387;-63
2021/11/06 02:28:28;;;;;;;;;;;3.10;99.90;;;;;;8359495;28;20284;-63
2021/11/06 02:32:29;;;;;;;;;;;3.00;99.90;;;;;;8363114;28;19948;-63
2021/11/06 02:36:30;;;;;;;;;;;2.80;99.90;;;;;;8363086;28;19904;-63
2021/11/06 02:40:30;;;;;;;;;;;2.80;99.90;;;;;;8362712;28;19967;-63
2021/11/06 02:44:31;;;;;;;;;;;2.90;99.90;;;;;;8350965;28;19912;-65
2021/11/06 02:48:31;;;;;;;;;;;2.70;99.90;;;;;;8377517;28;20382;-63
2021/11/06 02:52:32;;;;;;;;;;;2.60;99.90;;;;;;8395536;28;20330;-63
2021/11/06 02:56:32;;;;;;;;;;;2.80;99.90;;;;;;8391881;28;19905;-63
2021/11/06 03:00:33;;;;;;;;;;;2.60;99.90;;;;;;8328991;28;19971;-63
2021/11/06 03:04:35;;;;;;;;;;;2.60;99.90;;;;;;8328946;28;19909;-63
2021/11/06 03:08:35;;;;;;;;;;;2.70;99.90;;;;;;8328848;28;19905;-63
2021/11/06 03:12:37;;;;;;;;;;;2.70;99.90;;;;;;8328757;28;19916;-63
2021/11/06 03:16:38;;;;;;;;;;;2.40;99.90;;;;;;8335625;28;20427;-64
2021/11/06 03:20:39;;;;;;;;;;;2.30;99.90;;;;;;8361408;28;20372;-63
2021/11/06 03:24:39;;;;;;;;;;;2.00;99.90;;;;;;8361339;28;20006;-63
2021/11/06 03:28:40;;;;;;;;;;;2.00;99.90;;;;;;8361174;28;19935;-63
2021/11/06 03:32:40;;;;;;;;;;;2.00;99.90;;;;;;8361067;28;19913;-64
2021/11/06 03:36:41;;;;;;;;;;;1.70;99.90;;;;;;8361180;28;19909;-64
2021/11/06 03:40:42;;;;;;;;;;;1.90;99.90;;;;;;8361184;28;19927;-63
2021/11/06 03:44:42;;;;;;;;;;;1.60;99.90;;;;;;8360458;28;20365;-63
2021/11/06 03:48:42;;;;;;;;;;;1.60;99.90;;;;;;8358574;28;19905;-63
2021/11/06 03:52:43;;;;;;;;;;;1.60;99.90;;;;;;8360807;28;19905;-64
2021/11/06 03:56:44;;;;;;;;;;;1.60;99.90;;;;;;8360588;28;19912;-64
2021/11/06 04:00:44;;;;;;;;;;;1.70;99.90;;;;;;8360417;28;19905;-64
2021/11/06 04:04:46;;;;;;;;;;;1.70;99.90;;;;;;8360570;28;20422;-63
2021/11/06 04:08:46;;;;;;;;;;;1.70;99.90;;;;;;8360422;28;19905;-64
2021/11/06 04:12:46;;;;;;;;;;;1.60;99.90;;;;;;8360263;28;19916;-64
2021/11/06 04:16:47;;;;;;;;;;;1.70;99.90;;;;;;8360229;28;19904;-64
2021/11/06 04:20:47;;;;;;;;;;;1.70;99.90;;;;;;8359247;28;19951;-64
2021/11/06 04:24:48;;;;;;;;;;;1.80;99.90;;;;;;8359957;28;19915;-63
2021/11/06 04:28:48;;;;;;;;;;;1.70;99.90;;;;;;8359909;28;19905;-64
2021/11/06 04:32:49;;;;;;;;;;;1.60;99.90;;;;;;8360388;28;19908;-64
2021/11/06 04:36:49;;;;;;;;;;;1.60;99.90;;;;;;8360154;28;19978;-64
2021/11/06 04:40:50;;;;;;;;;;;1.40;99.90;;;;;;8342430;28;19961;-64
2021/11/06 04:44:50;;;;;;;;;;;1.40;99.90;;;;;;8363003;28;19938;-64
2021/11/06 04:48:51;;;;;;;;;;;1.60;99.90;;;;;;8366389;28;20277;-64
2021/11/06 04:52:51;;;;;;;;;;;1.40;99.90;;;;;;8365206;28;19951;-64
2021/11/06 04:56:52;;;;;;;;;;;1.40;99.90;;;;;;8365861;28;19911;-63
2021/11/06 05:00:52;;;;;;;;;;;1.50;99.90;;;;;;8365953;28;19905;-63
2021/11/06 05:04:53;;;;;;;;;;;1.60;99.90;;;;;;8365745;28;19916;-64
2021/11/06 05:08:53;;;;;;;;;;;1.50;99.90;;;;;;8365589;28;19958;-63
2021/11/06 05:12:54;;;;;;;;;;;1.30;99.90;;;;;;8365097;28;19999;-63
2021/11/06 05:16:54;;;;;;;;;;;1.40;99.90;;;;;;8365588;28;19911;-64
2021/11/06 05:20:55;;;;;;;;;;;1.50;99.90;;;;;;8365224;28;19939;-64
2021/11/06 05:24:56;;;;;;;;;;;1.20;99.90;;;;;;8371325;28;19923;-63
2021/11/06 05:28:57;;;;;;;;;;;1.30;99.90;;;;;;8354831;28;19936;-64
2021/11/06 05:32:57;;;;;;;;;;;1.20;99.90;;;;;;8374700;28;20298;-64
2021/11/06 05:36:58;;;;;;;;;;;0.90;99.90;;;;;;8396977;28;19904;-64
2021/11/06 05:40:58;;;;;;;;;;;0.70;99.90;;;;;;8397632;28;19928;-64
2021/11/06 05:44:59;;;;;;;;;;;0.80;99.90;;;;;;8397699;28;20292;-63
2021/11/06 05:49:00;;;;;;;;;;;1.00;99.90;;;;;;8397332;28;19949;-64
2021/11/06 05:53:00;;;;;;;;;;;1.00;99.90;;;;;;8398054;28;19905;-63
2021/11/06 05:57:01;;;;;;;;;;;1.10;99.90;;;;;;8388936;28;19905;-64
2021/11/06 06:01:01;;;;;;;;;;;1.40;99.90;;;;;;8363776;28;19905;-64
2021/11/06 06:05:02;;;;;;;;;;;1.20;99.90;;;;;;8360597;28;19913;-63
2021/11/06 06:09:02;;;;;;;;;;;1.30;99.90;;;;;;8363778;28;20415;-64
2021/11/06 06:13:03;;;;;;;;;;;1.50;99.90;;;;;;8363918;28;20280;-63
2021/11/06 06:17:04;;;;;;;;;;;1.50;99.90;;;;;;8346500;28;19927;-64
2021/11/06 06:21:04;;;;;;;;;;;1.60;99.90;;;;;;8363472;28;19905;-64
2021/11/06 06:25:05;;;;;;;;;;;1.60;99.90;;;;;;8363336;28;19915;-64
2021/11/06 06:29:05;;;;;;;;;;;1.80;99.90;;;;;;8351315;28;19905;-64
2021/11/06 06:33:06;;;;;;;;;;;1.60;99.90;;;;;;8378403;28;20398;-64
2021/11/06 06:37:06;;;;;;;;;;;1.70;99.90;;;;;;8396142;28;19908;-63
2021/11/06 06:41:07;;;;;;;;;;;1.70;99.90;;;;;;8377967;28;19909;-64
2021/11/06 06:45:07;;;;;;;;;;;1.70;99.90;;;;;;8395740;28;19908;-64
2021/11/06 06:49:08;;;;;;;;;;;1.90;99.90;;;;;;8395167;28;19985;-64
2021/11/06 06:53:08;;;;;;;;;;;2.10;99.90;;;;;;8381580;28;19916;-63
2021/11/06 06:57:09;;;;;;;;;;;2.20;99.90;;;;;;8327121;28;19909;-63
2021/11/06 07:01:09;;;;;;;;;;;2.40;99.90;;;;;;8345176;28;19908;-63
2021/11/06 07:05:10;;;;;;;;;;;2.50;99.90;;;;;;8344919;28;19913;-63
2021/11/06 07:09:11;;;;;;;;;;;2.60;99.90;;;;;;8326381;28;19921;-63
2021/11/06 07:13:16;;;;;;;;;;;2.40;99.90;;;;;;8343733;28;19909;-64
2021/11/06 07:17:17;;;;;;;;;;;2.50;99.90;;;;;;8343371;28;19913;-63
2021/11/06 07:21:17;;;;;;;;;;;2.60;99.90;;;;;;8326811;28;19923;-63
2021/11/06 07:25:18;;;;;;;;;;;2.60;99.90;;;;;;8326398;28;20376;-63
2021/11/06 07:29:18;;;;;;;;;;;2.80;99.90;;;;;;8340291;28;19996;-63
2021/11/06 07:33:20;;;;;;;;;;;3.00;99.90;;;;;;8344646;28;19932;-63
2021/11/06 07:37:20;;;;;;;;;;;3.10;99.90;;;;;;8340084;28;20377;-63
2021/11/06 07:41:22;;;;;;;;;;;3.10;99.90;;;;;;8344053;28;19909;-63
2021/11/06 07:45:23;;;;;;;;;;;3.10;99.90;;;;;;8345196;28;19916;-63
2021/11/06 07:49:23;;;;;;;;;;;3.30;99.90;;;;;;8347133;28;19909;-68
2021/11/06 07:53:24;;;;;;;;;;;3.20;99.90;;;;;;8326922;28;19908;-68
2021/11/06 07:57:24;;;;;;;;;;;3.10;99.90;;;;;;8339012;28;20365;-68
2021/11/06 08:01:25;;;;;;;;;;;3.20;99.90;;;;;;8351260;28;19908;-68
2021/11/06 08:05:25;;;;;;;;;;;3.10;99.90;;;;;;8359886;28;19916;-68
2021/11/06 08:09:26;;;;;;;;;;;3.20;99.90;;;;;;8359534;28;20404;-68
2021/11/06 08:13:29;;;;;;;;;;;3.50;99.90;;;;;;8353486;28;19913;-60
2021/11/06 08:17:29;;;;;;;;;;;3.80;99.90;;;;;;8341176;28;20520;-61
2021/11/06 08:21:30;;;;;;;;;;;3.80;99.90;;;;;;8359550;28;19909;-61
2021/11/06 08:25:30;;;;;;;;;;;3.90;99.90;;;;;;8366577;28;20438;-60
2021/11/06 08:29:31;;;;;;;;;;;5.90;99.90;;;;;;8357036;28;19935;-61
2021/11/06 08:33:32;;;;;;;;;;;7.20;99.90;;;;;;8357964;28;19915;-58
2021/11/06 08:37:32;;;;;;;;;;;6.70;99.90;;;;;;8355661;28;19940;-60
2021/11/06 08:41:33;;;;;;;;;;;6.40;99.90;;;;;;8361141;28;19999;-59
2021/11/06 08:45:34;;;;;;;;;;;5.70;99.90;;;;;;8358446;28;19912;-61
2021/11/06 08:49:34;;;;;;;;;;;5.40;99.90;;;;;;8363301;28;19983;-60
2021/11/06 08:53:35;;;;;;;;;;;6.20;99.90;;;;;;8329236;28;20347;-60
2021/11/06 08:57:37;;;;;;;;;;;6.80;99.90;;;;;;8353161;28;20005;-61
2021/11/06 09:01:38;;;;;;;;;;;7.00;99.90;;;;;;8351184;28;20019;-61
2021/11/06 09:05:39;;;;;;;;;;;6.90;99.90;;;;;;8360060;28;20296;-60
2021/11/06 09:09:39;;;;;;;;;;;7.00;99.90;;;;;;8354257;28;19908;-58
2021/11/06 09:13:43;;;;;;;;;;;7.10;99.90;;;;;;8349009;28;20074;-61
2021/11/06 09:17:44;;;;;;;;;;;7.80;99.90;;;;;;8329026;28;19909;-62
2021/11/06 09:21:46;;;;;;;;;;;7.90;99.90;;;;;;8332066;28;19904;-61
2021/11/06 09:25:46;;;;;;;;;;;7.40;99.90;;;;;;8335338;28;20408;-61
2021/11/06 09:29:47;;;;;;;;;;;7.10;99.90;;;;;;8338282;28;19917;-62
2021/11/06 09:33:48;;;;;;;;;;;7.10;99.90;;;;;;8334379;28;19909;-61
2021/11/06 09:37:49;;;;;;;;;;;7.40;99.90;;;;;;8339635;28;19975;-60
2021/11/06 09:41:50;;;;;;;;;;;7.40;99.90;;;;;;8345769;28;20368;-61
2021/11/06 09:45:51;;;;;;;;;;;7.70;99.90;;;;;;8356515;28;20419;-60
2021/11/06 09:49:53;;;;;;;;;;;8.00;99.90;;;;;;8335880;28;20042;-60
2021/11/06 09:53:54;;;;;;;;;;;8.10;99.90;;;;;;8351064;28;19904;-61
2021/11/06 09:57:55;;;;;;;;;;;7.60;99.90;;;;;;8349914;28;20065;-61
2021/11/06 10:01:55;;;;;;;;;;;7.90;99.90;;;;;;8328225;28;19913;-61
2021/11/06 10:05:57;;;;;;;;;;;7.90;99.90;;;;;;8342468;28;19918;-61
2021/11/06 10:10:00;;;;;;;;;;;7.10;99.90;;;;;;8347139;28;19909;-61
2021/11/06 10:14:01;;;;;;;;;;;7.00;99.90;;;;;;8343797;28;19905;-60
2021/11/06 10:18:11;;;;;;;;;;;7.20;99.90;;;;;;8335714;28;19915;-61
2021/11/06 10:22:12;;;;;;;;;;;7.60;99.90;;;;;;8342187;28;20454;-59
2021/11/06 10:26:17;;;;;;;;;;;7.30;99.90;;;;;;8341035;28;19956;-61
2021/11/06 10:30:21;;;;;;;;;;;7.50;99.90;;;;;;8352206;28;20300;-60
2021/11/06 10:34:22;;;;;;;;;;;8.20;99.90;;;;;;8347431;28;20392;-61
2021/11/06 10:38:24;;;;;;;;;;;8.20;99.90;;;;;;8332879;28;20335;-62
2021/11/06 10:42:26;;;;;;;;;;;7.80;99.90;;;;;;8329772;28;19962;-60
2021/11/06 10:46:29;;;;;;;;;;;8.40;99.90;;;;;;8354482;28;19925;-59
2021/11/06 10:50:50;;;;;;;;;;;8.50;99.90;;;;;;8360509;28;19909;-60
2021/11/06 10:55:17;;;;;;;;;;;8.50;99.90;;;;;;8362493;28;19909;-61
2021/11/06 10:59:21;;;;;;;;;;;8.20;99.90;;;;;;8334151;28;19919;-60
2021/11/06 11:03:25;;;;;;;;;;;8.20;99.90;;;;;;8338772;28;19916;-60
2021/11/06 11:07:26;;;;;;;;;;;8.70;99.90;;;;;;8339503;28;19913;-59
2021/11/06 11:11:30;;;;;;;;;;;8.60;99.90;;;;;;8350067;28;19912;-59
2021/11/06 11:15:30;;;;;;;;;;;8.50;99.90;;;;;;8351397;28;19992;-60
2021/11/06 11:19:35;;;;;;;;;;;8.30;99.90;;;;;;8355898;28;19934;-60
2021/11/06 11:23:37;;;;;;;;;;;8.40;99.90;;;;;;8344786;28;20111;-60
2021/11/06 11:27:37;;;;;;;;;;;8.00;99.90;;;;;;8341942;28;19951;-60
2021/11/06 11:31:40;;;;;;;;;;;7.90;99.90;;;;;;8343047;28;19919;-60
2021/11/06 11:35:40;;;;;;;;;;;7.80;99.90;;;;;;8341336;28;19928;-60
2021/11/06 11:39:41;;;;;;;;;;;7.70;99.90;;;;;;8341883;28;19909;-59
2021/11/06 11:43:48;;;;;;;;;;;7.70;99.90;;;;;;8343735;28;19987;-59
2021/11/06 11:48:09;;;;;;;;;;;7.50;99.90;;;;;;8339559;28;19958;-58
2021/11/06 11:52:22;;;;;;;;;;;7.60;99.90;;;;;;8355537;28;19924;-59
2021/11/06 11:56:26;;;;;;;;;;;7.60;99.90;;;;;;8335238;28;20422;-59
2021/11/06 12:00:29;;;;;;;;;;;7.70;99.90;;;;;;8326432;28;19905;-59
2021/11/06 12:04:30;;;;;;;;;;;7.70;99.90;;;;;;8348709;28;19932;-60
2021/11/06 12:08:31;;;;;;;;;;;7.70;99.90;;;;;;8360055;28;19908;-59
2021/11/06 12:12:37;;;;;;;;;;;7.80;99.90;;;;;;8360511;28;19911;-60
2021/11/06 12:16:43;;;;;;;;;;;7.70;99.90;;;;;;8360350;28;19908;-59
2021/11/06 12:20:43;;;;;;;;;;;7.60;99.90;;;;;;8359675;28;19912;-60
2021/11/06 12:24:45;;;;;;;;;;;7.80;99.90;;;;;;8359032;28;19970;-60
2021/11/06 12:28:46;;;;;;;;;;;7.90;99.90;;;;;;8339994;28;19941;-60
2021/11/06 12:32:47;;;;;;;;;;;8.20;99.90;;;;;;8358439;28;20323;-60
2021/11/06 12:36:47;;;;;;;;;;;8.20;99.90;;;;;;8327152;28;19916;-59
2021/11/06 12:40:52;;;;;;;;;;;8.20;99.90;;;;;;8326926;28;20332;-60
2021/11/06 12:44:55;;;;;;;;;;;8.30;99.90;;;;;;8327066;28;19916;-59
2021/11/06 12:49:08;;;;;;;;;;;8.30;99.90;;;;;;8342419;28;19912;-58
2021/11/06 12:53:08;;;;;;;;;;;8.30;99.90;;;;;;8327258;28;19912;-59
2021/11/06 12:57:09;;;;;;;;;;;8.40;99.90;;;;;;8341942;28;19911;-59
2021/11/06 13:01:27;;;;;;;;;;;8.60;99.90;;;;;;8359401;28;19955;-59
2021/11/06 13:05:39;;;;;;;;;;;8.50;99.90;;;;;;8361955;28;19919;-60
2021/11/06 13:09:39;;;;;;;;;;;8.30;99.90;;;;;;8365703;28;19905;-60
2021/11/06 13:13:49;;;;;;;;;;;8.20;99.90;;;;;;8365565;28;20395;-59
2021/11/06 13:17:50;;;;;;;;;;;8.30;99.90;;;;;;8335589;28;20362;-60
2021/11/06 13:21:50;;;;;;;;;;;8.30;99.90;;;;;;8332448;28;19909;-59
2021/11/06 13:25:51;;;;;;;;;;;8.60;99.90;;;;;;8332230;28;19963;-59
2021/11/06 13:29:51;;;;;;;;;;;8.70;99.90;;;;;;8345813;28;19913;-59
2021/11/06 13:33:53;;;;;;;;;;;8.80;99.90;;;;;;8332177;28;19905;-60
2021/11/06 13:38:11;;;;;;;;;;;8.40;99.90;;;;;;8332135;28;19905;-60
2021/11/06 13:42:23;;;;;;;;;;;8.50;99.90;;;;;;8331724;28;19927;-60
2021/11/06 13:46:27;;;;;;;;;;;8.60;99.90;;;;;;8331670;28;19909;-60
2021/11/06 13:50:27;;;;;;;;;;;8.70;99.90;;;;;;8331451;28;19905;-60
2021/11/06 13:54:29;;;;;;;;;;;8.80;99.90;;;;;;8331593;28;19944;-60
2021/11/06 13:58:29;;;;;;;;;;;8.80;99.90;;;;;;8331384;28;19905;-60
2021/11/06 14:02:30;;;;;;;;;;;8.70;99.90;;;;;;8384620;22;19928;-64
2021/11/06 14:06:40;;;;;;;;;;;8.80;99.90;;;;;;8395292;28;20615;-64
2021/11/06 14:10:41;;;;;;;;;;;8.90;99.90;;;;;;8396593;28;19908;-63
2021/11/06 14:14:52;;;;;;;;;;;8.50;99.90;;;;;;8366057;28;19958;-64
2021/11/06 14:19:02;;;;;;;;;;;8.60;99.90;;;;;;8344577;28;19915;-64
2021/11/06 14:23:03;;;;;;;;;;;8.70;99.90;;;;;;8363707;28;20452;-64
2021/11/06 14:27:09;;;;;;;;;;;8.70;99.90;;;;;;8363269;28;20281;-64
2021/11/06 14:31:10;;;;;;;;;;;9.20;99.90;;;;;;8345642;28;19955;-64
2021/11/06 14:35:10;;;;;;;;;;;9.50;99.90;;;;;;8333121;28;20284;-64
2021/11/06 14:39:14;;;;;;;;;;;9.60;99.90;;;;;;8330180;28;19905;-64
2021/11/06 14:43:14;;;;;;;;;;;9.30;99.90;;;;;;8329885;28;19959;-64
2021/11/06 14:47:25;;;;;;;;;;;9.00;99.90;;;;;;8355224;28;19920;-63
2021/11/06 14:51:26;;;;;;;;;;;8.50;99.90;;;;;;8362928;28;20618;-63
2021/11/06 14:55:26;;;;;;;;;;;8.00;99.90;;;;;;8363441;28;19912;-63
2021/11/06 14:59:27;;;;;;;;;;;7.50;99.90;;;;;;8363251;28;20395;-63
2021/11/06 15:03:28;;;;;;;;;;;7.10;99.90;;;;;;8361819;28;20295;-63
2021/11/06 15:07:31;;;;;;;;;;;6.80;99.90;;;;;;8356771;28;19919;-63
2021/11/06 15:11:31;;;;;;;;;;;6.50;99.90;;;;;;8353503;28;19912;-63
2021/11/06 15:15:32;;;;;;;;;;;6.00;99.90;;;;;;8362184;28;19909;-62
2021/11/06 15:19:33;;;;;;;;;;;5.20;99.90;;;;;;8361434;28;19913;-63
2021/11/06 15:23:33;;;;;;;;;;;5.00;99.90;;;;;;8361570;28;19905;-63
2021/11/06 15:27:34;;;;;;;;;;;5.10;99.90;;;;;;8360743;28;20003;-62
2021/11/06 15:31:34;;;;;;;;;;;5.00;99.90;;;;;;8361488;28;20007;-63
2021/11/06 15:35:35;;;;;;;;;;;5.00;99.90;;;;;;8361464;28;19908;-63
2021/11/06 15:39:35;;;;;;;;;;;4.90;99.90;;;;;;8359591;28;19911;-63
2021/11/06 15:43:36;;;;;;;;;;;4.80;99.90;;;;;;8361436;28;19912;-63
2021/11/06 15:47:36;;;;;;;;;;;4.60;99.90;;;;;;8361259;28;20002;-63
2021/11/06 15:51:48;;;;;;;;;;;4.60;99.90;;;;;;8343147;28;19909;-63
2021/11/06 15:55:50;;;;;;;;;;;4.40;99.90;;;;;;8361926;28;19905;-63
2021/11/06 15:59:50;;;;;;;;;;;4.00;99.90;;;;;;8342171;28;19909;-63
2021/11/06 16:03:51;;;;;;;;;;;3.80;99.90;;;;;;8357915;28;19916;-64
2021/11/06 16:07:51;;;;;;;;;;;3.70;99.90;;;;;;8359063;28;19912;-63
2021/11/06 16:11:51;;;;;;;;;;;3.60;99.90;;;;;;8358580;28;19908;-63
2021/11/06 16:15:55;;;;;;;;;;;3.50;99.90;;;;;;8360842;28;19913;-63
2021/11/06 16:19:58;;;;;;;;;;;3.60;99.90;;;;;;8356468;28;20322;-64
2021/11/06 16:23:58;;;;;;;;;;;3.50;99.90;;;;;;8353538;28;19912;-64
2021/11/06 16:27:59;;;;;;;;;;;3.30;99.90;;;;;;8357894;28;19915;-64
2021/11/06 16:32:00;;;;;;;;;;;3.20;99.90;;;;;;8355982;28;19908;-64
2021/11/06 16:36:04;;;;;;;;;;;3.10;99.90;;;;;;8359442;28;19996;-64
2021/11/06 16:40:08;;;;;;;;;;;3.10;99.90;;;;;;8361928;28;20276;-64
2021/11/06 16:44:09;;;;;;;;;;;3.10;99.90;;;;;;8365022;28;20645;-64
2021/11/06 16:48:10;;;;;;;;;;;2.90;99.90;;;;;;8367002;28;19909;-64
2021/11/06 16:52:10;;;;;;;;;;;2.70;99.90;;;;;;8348312;28;19908;-64
2021/11/06 16:56:11;;;;;;;;;;;2.90;99.90;;;;;;8366766;28;19920;-64
2021/11/06 17:00:16;;;;;;;;;;;2.80;99.90;;;;;;8365721;28;19909;-64
2021/11/06 17:04:16;;;;;;;;;;;2.80;99.90;;;;;;8348325;28;19913;-64
2021/11/06 17:12:18;;;;;;;;;;;2.10;99.90;;;;;;8365821;28;19905;-64
2021/11/06 17:16:21;;;;;;;;;;;1.90;99.90;;;;;;8364560;28;19905;-64
2021/11/06 17:20:21;;;;;;;;;;;2.10;99.90;;;;;;8348046;28;19943;-64
2021/11/06 17:24:21;;;;;;;;;;;2.10;99.90;;;;;;8365921;28;20368;-64
2021/11/06 17:28:22;;;;;;;;;;;2.00;99.90;;;;;;8365463;28;20007;-64
2021/11/06 17:32:22;;;;;;;;;;;2.00;99.90;;;;;;8366074;28;20364;-64
2021/11/06 17:36:24;;;;;;;;;;;2.10;99.90;;;;;;8365113;28;19916;-64
2021/11/06 17:40:24;;;;;;;;;;;2.00;99.90;;;;;;8366254;28;19905;-64
2021/11/06 17:44:26;;;;;;;;;;;1.80;99.90;;;;;;8364875;28;19915;-64
2021/11/06 17:48:32;;;;;;;;;;;1.80;99.90;;;;;;8363752;28;19909;-64
2021/11/06 17:52:34;;;;;;;;;;;1.70;99.90;;;;;;8345882;28;19916;-64
2021/11/06 17:56:35;;;;;;;;;;;1.60;99.90;;;;;;8347342;28;20364;-64
2021/11/06 18:00:37;;;;;;;;;;;1.50;99.90;;;;;;8365318;28;19904;-64
2021/11/06 18:04:38;;;;;;;;;;;1.50;99.90;;;;;;8364066;28;19967;-64
2021/11/06 18:08:39;;;;;;;;;;;1.60;99.90;;;;;;8347358;28;19911;-64
2021/11/06 18:12:39;;;;;;;;;;;1.70;99.90;;;;;;8364980;28;19904;-64
2021/11/06 18:16:40;;;;;;;;;;;1.80;99.90;;;;;;8364927;28;19927;-63
2021/11/06 18:20:40;;;;;;;;;;;1.90;99.90;;;;;;8336245;28;19905;-64
2021/11/06 18:24:41;;;;;;;;;;;1.80;99.90;;;;;;8331626;28;19916;-64
2021/11/06 18:28:41;;;;;;;;;;;1.40;99.90;;;;;;8350631;28;19949;-64
2021/11/06 18:32:42;;;;;;;;;;;1.50;99.90;;;;;;8364596;28;19908;-64
2021/11/06 18:36:43;;;;;;;;;;;1.40;99.90;;;;;;8364026;28;19909;-64
2021/11/06 18:40:44;;;;;;;;;;;1.50;99.90;;;;;;8363791;28;20390;-63
2021/11/06 18:44:46;;;;;;;;;;;1.50;99.90;;;;;;8363903;28;19916;-64
2021/11/06 18:48:53;;;;;;;;;;;1.50;99.90;;;;;;8345636;28;20475;-63
2021/11/06 18:52:53;;;;;;;;;;;1.60;99.90;;;;;;8361763;28;20008;-64
2021/11/06 18:56:54;;;;;;;;;;;1.50;99.90;;;;;;8363445;28;19905;-63
2021/11/06 19:00:54;;;;;;;;;;;1.40;99.90;;;;;;8362977;28;19912;-63
2021/11/06 19:04:55;;;;;;;;;;;1.40;99.90;;;;;;8362282;28;19913;-64
2021/11/06 19:08:55;;;;;;;;;;;1.20;99.90;;;;;;8362900;28;19936;-63
2021/11/06 19:12:56;;;;;;;;;;;1.10;99.90;;;;;;8363006;28;19905;-64
2021/11/06 19:16:58;;;;;;;;;;;1.30;99.90;;;;;;8362862;28;20331;-64
2021/11/06 19:20:59;;;;;;;;;;;1.40;99.90;;;;;;8344769;28;19912;-63
2021/11/06 19:25:00;;;;;;;;;;;1.40;99.90;;;;;;8332926;28;20574;-64
2021/11/06 19:29:00;;;;;;;;;;;1.40;99.90;;;;;;8351560;28;20296;-64
2021/11/06 19:33:01;;;;;;;;;;;1.60;99.90;;;;;;8362403;28;20311;-64
2021/11/06 19:37:01;;;;;;;;;;;1.50;99.90;;;;;;8362381;28;19904;-64
2021/11/06 19:41:02;;;;;;;;;;;1.50;99.90;;;;;;8362125;28;19916;-64
2021/11/06 19:45:07;;;;;;;;;;;1.50;99.90;;;;;;8361255;28;19913;-64
2021/11/06 19:49:08;;;;;;;;;;;1.60;99.90;;;;;;8360827;28;19912;-64
2021/11/06 19:53:09;;;;;;;;;;;1.60;99.90;;;;;;8361359;28;19952;-64
2021/11/06 19:57:10;;;;;;;;;;;1.70;99.90;;;;;;8359830;28;19905;-64
2021/11/06 20:01:10;;;;;;;;;;;1.70;99.90;;;;;;8361312;28;19955;-64
2021/11/06 20:05:11;;;;;;;;;;;1.60;99.90;;;;;;8384963;22;20016;-63
2021/11/06 20:09:11;;;;;;;;;;;1.90;99.90;;;;;;8359956;28;19908;-63
2021/11/06 20:13:12;;;;;;;;;;;1.80;99.90;;;;;;8360404;28;19908;-63
2021/11/06 20:17:12;;;;;;;;;;;2.10;99.90;;;;;;8359879;28;19974;-63
2021/11/06 20:21:13;;;;;;;;;;;2.10;99.90;;;;;;8360406;28;19905;-63
2021/11/06 20:25:14;;;;;;;;;;;2.20;99.90;;;;;;8360223;28;19912;-63
2021/11/06 20:29:15;;;;;;;;;;;2.30;99.90;;;;;;8358511;28;19909;-63
2021/11/06 20:33:16;;;;;;;;;;;2.20;99.90;;;;;;8360199;28;19952;-63
2021/11/06 20:37:16;;;;;;;;;;;2.40;99.90;;;;;;8342377;28;20503;-63
2021/11/06 20:41:22;;;;;;;;;;;2.30;99.90;;;;;;8359889;28;20384;-63
2021/11/06 20:45:22;;;;;;;;;;;2.50;99.90;;;;;;8359914;28;20324;-63
2021/11/06 20:49:23;;;;;;;;;;;2.40;99.90;;;;;;8360089;28;19959;-64
2021/11/06 20:53:24;;;;;;;;;;;2.40;99.90;;;;;;8359751;28;19912;-63
2021/11/06 20:57:25;;;;;;;;;;;2.40;99.90;;;;;;8359893;28;19950;-63
2021/11/06 21:01:25;;;;;;;;;;;2.20;99.90;;;;;;8357867;28;19912;-63
2021/11/06 21:05:26;;;;;;;;;;;2.50;99.90;;;;;;8359648;28;19917;-63
2021/11/06 21:18:16;;;;;;;;;;;2.50;99.90;;;;;;8359742;28;19904;-63
2021/11/06 21:22:16;;;;;;;;;;;2.50;99.90;;;;;;8359514;28;19905;-62
2021/11/06 21:26:19;;;;;;;;;;;2.80;99.90;;;;;;8361325;28;19999;-63
2021/11/06 21:30:20;;;;;;;;;;;2.80;99.90;;;;;;8363490;28;19944;-62
2021/11/06 21:34:25;;;;;;;;;;;3.00;99.90;;;;;;8365268;28;20288;-62
2021/11/06 21:38:28;;;;;;;;;;;3.20;99.90;;;;;;8364966;28;19928;-63
2021/11/06 21:42:28;;;;;;;;;;;3.00;99.90;;;;;;8364914;28;19905;-63
2021/11/06 21:46:29;;;;;;;;;;;3.00;99.90;;;;;;8346883;28;19916;-63
2021/11/06 21:50:30;;;;;;;;;;;3.20;99.90;;;;;;8364673;28;20258;-62
2021/11/06 21:54:30;;;;;;;;;;;3.10;99.90;;;;;;8364479;28;19905;-63
2021/11/06 21:58:31;;;;;;;;;;;3.10;99.90;;;;;;8364118;28;19912;-62
2021/11/06 22:02:32;;;;;;;;;;;3.20;99.90;;;;;;8362574;28;19916;-62
2021/11/06 22:06:33;;;;;;;;;;;3.20;99.90;;;;;;8346371;28;19912;-62
2021/11/06 22:10:34;;;;;;;;;;;3.40;99.90;;;;;;8363910;28;19905;-62
2021/11/06 22:14:35;;;;;;;;;;;3.30;99.90;;;;;;8363811;28;19904;-62
2021/11/06 22:18:37;;;;;;;;;;;3.30;99.90;;;;;;8345885;28;19942;-62
2021/11/06 22:22:37;;;;;;;;;;;3.40;99.90;;;;;;8363696;28;19904;-62
2021/11/06 22:26:38;;;;;;;;;;;3.20;99.90;;;;;;8363489;28;19962;-62
2021/11/06 22:30:39;;;;;;;;;;;3.10;99.90;;;;;;8363598;28;19905;-63
2021/11/06 22:34:39;;;;;;;;;;;3.20;99.90;;;;;;8361839;28;19950;-63
2021/11/06 22:38:40;;;;;;;;;;;3.30;99.90;;;;;;8361790;28;20399;-63
2021/11/06 22:42:41;;;;;;;;;;;3.30;99.90;;;;;;8345216;28;19905;-62
2021/11/06 22:46:43;;;;;;;;;;;3.40;99.90;;;;;;8345019;28;20586;-63
2021/11/06 22:50:45;;;;;;;;;;;3.20;99.90;;;;;;8344865;28;19905;-62
2021/11/06 22:54:46;;;;;;;;;;;3.40;99.90;;;;;;8344703;28;20345;-63
2021/11/06 22:58:46;;;;;;;;;;;3.40;99.90;;;;;;8362449;28;19912;-63
2021/11/06 23:02:51;;;;;;;;;;;3.40;99.90;;;;;;8362358;28;19913;-63
2021/11/06 23:06:52;;;;;;;;;;;3.30;99.90;;;;;;8356091;28;19913;-63
2021/11/06 23:10:52;;;;;;;;;;;3.30;99.90;;;;;;8329104;28;19911;-63
2021/11/06 23:14:53;;;;;;;;;;;3.20;99.90;;;;;;8329100;28;19905;-62
2021/11/06 23:18:54;;;;;;;;;;;3.30;99.90;;;;;;8328951;28;20393;-62
2021/11/06 23:22:55;;;;;;;;;;;3.40;99.90;;;;;;8328981;28;20000;-62
2021/11/06 23:27:00;;;;;;;;;;;3.20;99.90;;;;;;8333490;28;19913;-63
2021/11/06 23:31:01;;;;;;;;;;;3.20;99.90;;;;;;8361478;28;19905;-63
2021/11/06 23:35:03;;;;;;;;;;;3.20;99.90;;;;;;8361458;28;20407;-63
2021/11/06 23:39:04;;;;;;;;;;;3.10;99.90;;;;;;8360129;28;19911;-62
2021/11/06 23:43:06;;;;;;;;;;;3.10;99.90;;;;;;8361309;28;19904;-63
2021/11/06 23:47:07;;;;;;;;;;;3.20;99.90;;;;;;8361143;28;19916;-63
2021/11/06 23:51:10;;;;;;;;;;;3.10;99.90;;;;;;8360761;28;19904;-62
2021/11/06 23:55:14;;;;;;;;;;;3.10;99.90;;;;;;8360902;28;19908;-62
2021/11/06 23:59:39;;;;;;;;;;;3.00;99.90;;;;;;8360618;28;19915;-62
